createdAt,value
2022-09-07T00:01:45.994Z,12.83
2022-09-07T00:06:38.641Z,12.83
2022-09-07T00:11:31.095Z,12.10
2022-09-07T00:16:29.642Z,11.13
2022-09-07T00:21:22.117Z,11.60
2022-09-07T00:26:18.858Z,14.50
2022-09-07T00:31:19.168Z,13.43
2022-09-07T00:36:12.296Z,12.73
2022-09-07T00:41:06.618Z,12.80
2022-09-07T00:46:01.365Z,13.20
2022-09-07T00:51:03.411Z,11.90
2022-09-07T00:55:58.503Z,11.93
2022-09-07T01:00:52.170Z,12.30
2022-09-07T01:05:53.879Z,15.13
2022-09-07T01:10:47.875Z,17.07
2022-09-07T01:15:44.300Z,18.63
2022-09-07T01:20:44.805Z,18.73
2022-09-07T01:26:06.899Z,17.20
2022-09-07T01:31:23.153Z,13.97
2022-09-07T01:36:33.290Z,12.67
2022-09-07T01:41:47.075Z,13.27
2022-09-07T01:47:07.205Z,14.37
2022-09-07T01:52:06.547Z,16.87
2022-09-07T01:57:04.626Z,14.23
2022-09-07T02:02:06.143Z,14.00
2022-09-07T02:07:34.075Z,13.93
2022-09-07T02:12:37.142Z,15.90
2022-09-07T02:17:34.189Z,17.80
2022-09-07T02:22:30.270Z,16.47
2022-09-07T02:27:49.016Z,17.43
2022-09-07T02:32:41.661Z,15.10
2022-09-07T02:37:36.026Z,15.27
2022-09-07T02:42:32.304Z,12.07
2022-09-07T02:47:27.696Z,12.57
2022-09-07T02:52:51.443Z,13.13
2022-09-07T02:57:56.907Z,13.20
2022-09-07T03:03:23.317Z,12.50
2022-09-07T03:08:44.518Z,13.43
2022-09-07T03:13:36.853Z,14.60
2022-09-07T03:18:29.284Z,13.27
2022-09-07T03:23:21.959Z,13.13
2022-09-07T03:28:14.444Z,14.60
2022-09-07T03:33:07.329Z,12.30
2022-09-07T03:37:59.653Z,18.17
2022-09-07T03:42:51.965Z,19.23
2022-09-07T03:47:44.764Z,14.50
2022-09-07T03:52:37.858Z,14.17
2022-09-07T03:57:30.467Z,14.33
2022-09-07T04:02:22.915Z,13.43
2022-09-07T04:07:16.091Z,13.63
2022-09-07T04:12:08.652Z,14.13
2022-09-07T04:17:01.220Z,13.17
2022-09-07T04:21:53.776Z,12.63
2022-09-07T04:26:46.173Z,13.53
2022-09-07T04:31:38.869Z,12.57
2022-09-07T04:36:31.589Z,16.17
2022-09-07T04:41:24.243Z,14.03
2022-09-07T04:46:21.928Z,15.60
2022-09-07T04:51:14.960Z,16.10
2022-09-07T04:56:07.476Z,13.37
2022-09-07T05:01:55.847Z,12.20
2022-09-07T05:08:03.538Z,12.17
2022-09-07T05:14:10.760Z,11.17
2022-09-07T05:20:20.230Z,12.27
2022-09-07T05:26:27.188Z,10.50
2022-09-07T05:32:36.149Z,12.77
2022-09-07T05:38:43.040Z,11.90
2022-09-07T05:44:50.313Z,11.93
2022-09-07T05:50:57.667Z,10.87
2022-09-07T05:57:05.016Z,9.50
2022-09-07T06:03:12.213Z,9.77
2022-09-07T06:09:20.908Z,10.23
2022-09-07T06:15:29.268Z,8.40
2022-09-07T06:21:36.702Z,8.07
2022-09-07T06:27:43.838Z,8.30
2022-09-07T06:33:50.732Z,8.07
2022-09-07T06:39:58.215Z,7.60
2022-09-07T06:58:59.100Z,7.28
2022-09-07T07:04:10.184Z,7.22
2022-09-07T07:09:04.102Z,7.00
2022-09-07T07:13:56.719Z,6.68
2022-09-07T07:18:52.445Z,6.57
2022-09-07T07:23:45.462Z,7.40
2022-09-07T07:33:50.487Z,6.35
2022-09-07T07:39:01.313Z,6.53
2022-09-07T07:43:57.232Z,6.57
2022-09-07T07:48:49.718Z,7.20
2022-09-07T07:53:42.752Z,7.68
2022-09-07T07:58:37.159Z,6.60
2022-09-07T08:03:30.411Z,6.25
2022-09-07T08:08:25.540Z,6.55
2022-09-07T08:13:18.587Z,7.22
2022-09-07T08:18:16.458Z,7.00
2022-09-07T08:23:09.291Z,7.22
2022-09-07T08:28:02.443Z,6.60
2022-09-07T08:32:54.809Z,7.47
2022-09-07T08:37:47.248Z,7.63
2022-09-07T08:42:48.731Z,7.60
2022-09-07T08:47:50.724Z,7.53
2022-09-07T08:53:04.501Z,6.07
2022-09-07T08:58:52.920Z,6.10
2022-09-07T09:05:17.036Z,7.23
2022-09-07T09:11:26.211Z,7.03
2022-09-07T09:17:33.512Z,6.53
2022-09-07T09:23:40.449Z,5.97
2022-09-07T09:29:47.931Z,5.93
2022-09-07T09:35:56.110Z,6.07
2022-09-07T09:42:03.253Z,5.43
2022-09-07T09:48:10.395Z,5.10
2022-09-07T09:54:17.827Z,5.80
2022-09-07T10:00:29.836Z,5.97
2022-09-07T10:06:36.971Z,5.70
2022-09-07T10:12:44.630Z,6.17
2022-09-07T10:18:51.594Z,5.90
2022-09-07T10:24:58.919Z,5.90
2022-09-07T10:31:06.109Z,6.13
2022-09-07T10:37:14.967Z,6.83
2022-09-07T10:43:22.354Z,6.73
2022-09-07T10:49:30.202Z,6.30
2022-09-07T10:55:37.163Z,6.40
2022-09-07T11:01:08.322Z,6.37
2022-09-07T11:06:06.820Z,6.13
2022-09-07T11:11:11.108Z,6.50
2022-09-07T11:16:09.022Z,5.70
2022-09-07T11:21:05.189Z,6.40
2022-09-07T11:26:19.317Z,6.30
2022-09-07T11:31:41.291Z,6.57
2022-09-07T11:36:39.289Z,7.33
2022-09-07T11:41:38.691Z,6.90
2022-09-07T11:46:45.850Z,6.77
2022-09-07T11:51:53.546Z,7.03
2022-09-07T11:56:54.891Z,6.83
2022-09-07T12:01:59.322Z,6.97
2022-09-07T12:07:20.292Z,6.40
2022-09-07T12:12:45.250Z,6.43
2022-09-07T12:17:43.506Z,6.50
2022-09-07T12:22:35.922Z,6.30
2022-09-07T12:27:30.898Z,6.97
2022-09-07T12:33:18.917Z,7.33
2022-09-07T12:38:14.089Z,7.00
2022-09-07T12:43:18.346Z,6.53
2022-09-07T12:48:16.806Z,7.33
2022-09-07T12:53:23.902Z,7.20
2022-09-07T12:58:16.116Z,7.27
2022-09-07T13:08:56.982Z,8.27
2022-09-07T13:14:04.567Z,8.57
2022-09-07T13:19:02.581Z,7.90
2022-09-07T13:30:27.183Z,8.67
2022-09-07T13:36:35.303Z,9.83
2022-09-07T13:42:41.917Z,8.80
2022-09-07T13:48:48.930Z,9.17
2022-09-07T13:54:00.261Z,8.13
2022-09-07T13:59:48.695Z,10.80
2022-09-07T14:05:55.553Z,10.07
2022-09-07T14:12:02.916Z,9.50
2022-09-07T14:18:12.027Z,9.20
2022-09-07T14:24:19.249Z,8.00
2022-09-07T14:30:26.251Z,8.77
2022-09-07T14:36:49.759Z,8.97
2022-09-07T14:42:56.527Z,7.60
2022-09-07T14:49:03.512Z,9.33
2022-09-07T14:55:10.941Z,8.27
2022-09-07T15:07:47.409Z,7.47
2022-09-07T15:13:55.173Z,8.70
2022-09-07T15:20:03.431Z,8.90
2022-09-07T15:27:02.097Z,8.83
2022-09-07T15:31:45.972Z,8.10
2022-09-07T15:36:52.495Z,8.00
2022-09-07T15:41:46.377Z,7.10
2022-09-07T15:46:39.245Z,7.77
2022-09-07T15:57:48.448Z,7.80
2022-09-07T16:02:00.141Z,6.87
2022-09-07T16:06:53.062Z,6.60
2022-09-07T16:11:45.417Z,7.57
2022-09-07T16:21:50.036Z,7.67
2022-09-07T16:26:42.403Z,8.20
2022-09-07T16:31:35.646Z,8.23
2022-09-07T16:36:28.084Z,7.23
2022-09-07T16:41:28.584Z,15.70
2022-09-07T16:46:26.254Z,8.53
2022-09-07T16:51:21.424Z,8.13
2022-09-07T16:56:17.225Z,14.07
2022-09-07T17:01:11.899Z,15.07
2022-09-07T17:06:06.201Z,8.07
2022-09-07T17:11:07.190Z,8.97
2022-09-07T17:16:11.422Z,9.43
2022-09-07T17:21:06.368Z,8.80
2022-09-07T17:26:13.835Z,9.90
2022-09-07T17:31:08.839Z,10.07
2022-09-07T17:36:03.524Z,10.00
2022-09-07T17:40:56.631Z,10.17
2022-09-07T17:45:49.022Z,12.77
2022-09-07T17:50:42.495Z,11.90
2022-09-07T17:55:36.030Z,12.67
2022-09-07T18:00:28.946Z,12.13
2022-09-07T18:05:21.773Z,12.10
2022-09-07T18:10:14.657Z,11.33
2022-09-07T18:15:07.410Z,11.53
2022-09-07T18:19:59.717Z,11.30
2022-09-07T18:24:52.361Z,12.43
2022-09-07T18:29:44.738Z,12.17
2022-09-07T18:34:44.000Z,11.70
2022-09-07T18:39:51.422Z,16.53
2022-09-07T18:50:02.607Z,13.77
2022-09-07T18:55:00.197Z,13.70
2022-09-07T19:00:04.930Z,12.53
2022-09-07T19:10:23.535Z,15.00
2022-09-07T19:15:25.035Z,13.77
2022-09-07T19:20:22.962Z,16.70
2022-09-07T19:25:26.917Z,15.30
2022-09-07T19:30:28.872Z,13.00
2022-09-07T19:35:28.333Z,12.87
2022-09-07T19:40:27.022Z,14.40
2022-09-07T19:45:29.225Z,15.37
2022-09-07T19:50:26.032Z,14.07
2022-09-07T19:55:26.416Z,18.67
2022-09-07T20:00:25.862Z,15.27
2022-09-07T20:05:23.028Z,13.90
2022-09-07T20:10:16.432Z,17.63
2022-09-07T20:15:19.332Z,14.17
2022-09-07T20:20:19.583Z,15.90
2022-09-07T20:25:29.601Z,15.97
2022-09-07T20:30:56.238Z,16.00
2022-09-07T20:36:18.538Z,14.80
2022-09-07T20:41:28.148Z,14.63
2022-09-07T20:46:31.147Z,15.83
2022-09-07T20:51:25.191Z,15.10
2022-09-07T20:56:32.768Z,16.67
2022-09-07T21:01:25.385Z,18.17
2022-09-07T21:06:19.213Z,18.17
2022-09-07T21:11:14.142Z,23.47
2022-09-07T21:16:16.456Z,19.80
2022-09-07T21:21:19.823Z,18.30
2022-09-07T21:26:13.027Z,18.40
2022-09-07T21:31:07.326Z,20.80
2022-09-07T21:36:09.705Z,20.60
2022-09-07T21:41:13.394Z,22.63
2022-09-07T21:47:01.597Z,21.57
2022-09-07T21:53:08.788Z,20.17
2022-09-07T21:59:16.155Z,21.83
2022-09-07T22:05:23.125Z,21.60
2022-09-07T22:11:30.390Z,22.23
2022-09-07T22:17:37.418Z,24.23
2022-09-07T22:23:44.729Z,26.57
2022-09-07T22:29:51.908Z,22.53
2022-09-07T22:35:59.072Z,24.40
2022-09-07T22:42:05.931Z,24.43
2022-09-07T22:48:13.129Z,21.37
2022-09-07T22:54:20.021Z,21.23
2022-09-07T23:00:27.312Z,21.60
2022-09-07T23:06:34.588Z,19.70
2022-09-07T23:12:41.843Z,19.43
2022-09-07T23:18:48.823Z,18.20
2022-09-07T23:24:56.624Z,20.13
2022-09-07T23:31:04.096Z,19.33
2022-09-07T23:37:11.300Z,19.90
2022-09-07T23:43:18.358Z,22.20
2022-09-07T23:48:29.501Z,21.93
2022-09-07T23:53:22.633Z,19.87
2022-09-07T23:58:15.054Z,20.43
